createdAt,value
2017-12-23T00:04:28.191Z,85.60
2017-12-23T00:09:30.723Z,85.50
2017-12-23T00:14:33.257Z,85.60
2017-12-23T00:19:35.775Z,85.70
2017-12-23T00:24:38.323Z,85.70
2017-12-23T00:29:40.863Z,85.50
2017-12-23T00:34:44.166Z,85.90
2017-12-23T00:39:46.703Z,85.80
2017-12-23T00:44:49.238Z,85.70
2017-12-23T00:49:51.778Z,86.00
2017-12-23T00:54:55.082Z,86.00
2017-12-23T00:59:57.641Z,86.00
2017-12-23T01:05:00.183Z,85.70
2017-12-23T01:10:02.726Z,85.90
2017-12-23T01:15:05.275Z,86.40
2017-12-23T01:20:07.826Z,85.60
2017-12-23T01:25:10.402Z,85.80
2017-12-23T01:30:13.744Z,86.10
2017-12-23T01:35:16.274Z,86.10
2017-12-23T01:40:18.827Z,85.70
2017-12-23T01:45:21.363Z,86.00
2017-12-23T01:50:23.902Z,86.40
2017-12-23T01:55:27.206Z,87.00
2017-12-23T02:00:29.758Z,87.00
2017-12-23T02:05:32.310Z,87.30
2017-12-23T02:10:34.859Z,87.00
2017-12-23T02:15:37.394Z,87.00
2017-12-23T02:20:39.934Z,87.10
2017-12-23T02:25:43.250Z,86.40
2017-12-23T02:30:45.803Z,86.40
2017-12-23T02:35:48.342Z,86.40
2017-12-23T02:40:50.888Z,86.10
2017-12-23T02:45:53.434Z,86.20
2017-12-23T02:50:55.978Z,86.00
2017-12-23T02:55:59.287Z,85.70
2017-12-23T03:01:01.818Z,85.60
2017-12-23T03:06:04.368Z,85.80
2017-12-23T03:11:07.658Z,86.40
2017-12-23T03:16:10.213Z,86.20
2017-12-23T03:21:12.769Z,86.60
2017-12-23T03:26:16.073Z,86.10
2017-12-23T03:31:18.602Z,86.10
2017-12-23T03:36:21.159Z,86.30
2017-12-23T03:41:23.698Z,86.50
2017-12-23T03:46:26.242Z,86.40
2017-12-23T03:51:28.784Z,86.50
2017-12-23T03:56:33.053Z,87.20
2017-12-23T04:01:35.598Z,87.20
2017-12-23T04:06:38.143Z,87.80
2017-12-23T04:11:40.698Z,88.40
2017-12-23T04:16:44.005Z,90.00
2017-12-23T04:26:43.178Z,90.10
2017-12-23T04:31:45.715Z,90.30
2017-12-23T04:36:48.269Z,90.40
2017-12-23T04:41:51.584Z,90.30
2017-12-23T04:46:54.887Z,90.40
2017-12-23T04:51:57.439Z,90.70
2017-12-23T04:56:59.991Z,90.30
2017-12-23T05:02:03.291Z,90.70
2017-12-23T05:07:05.835Z,90.40
2017-12-23T05:12:08.416Z,90.30
2017-12-23T05:17:11.725Z,90.20
2017-12-23T05:22:15.042Z,90.30
2017-12-23T05:27:17.578Z,90.20
2017-12-23T05:32:20.116Z,89.90
2017-12-23T05:37:22.647Z,90.00
2017-12-23T05:42:25.202Z,90.10
2017-12-23T05:47:27.739Z,90.00
2017-12-23T05:52:30.263Z,90.10
2017-12-23T05:57:32.804Z,90.00
2017-12-23T06:02:35.362Z,90.00
2017-12-23T06:07:37.923Z,90.20
2017-12-23T06:12:40.456Z,90.20
2017-12-23T06:17:43.000Z,90.10
2017-12-23T06:22:46.301Z,89.80
2017-12-23T06:27:48.841Z,89.80
2017-12-23T06:32:51.383Z,90.10
2017-12-23T06:37:53.922Z,90.10
2017-12-23T06:42:56.447Z,90.00
2017-12-23T06:47:58.994Z,90.10
2017-12-23T06:53:01.544Z,90.10
2017-12-23T06:58:04.093Z,90.00
2017-12-23T07:03:07.394Z,89.90
2017-12-23T07:08:09.934Z,89.90
2017-12-23T07:13:13.251Z,90.10
2017-12-23T07:18:15.781Z,90.10
2017-12-23T07:23:18.315Z,90.10
2017-12-23T07:28:20.859Z,90.10
2017-12-23T07:33:24.167Z,90.00
2017-12-23T07:38:26.709Z,90.00
2017-12-23T07:43:29.258Z,90.10
2017-12-23T07:48:31.791Z,90.00
2017-12-23T07:53:34.350Z,90.20
2017-12-23T07:58:36.896Z,90.10
2017-12-23T08:03:39.437Z,90.10
2017-12-23T08:08:41.990Z,90.10
2017-12-23T08:13:44.542Z,90.00
2017-12-23T08:18:47.066Z,90.00
2017-12-23T08:23:49.611Z,90.10
2017-12-23T08:28:52.308Z,90.30
2017-12-23T08:33:55.614Z,90.10
2017-12-23T08:38:58.187Z,90.10
2017-12-23T08:44:01.490Z,90.10
2017-12-23T08:49:04.050Z,90.10
2017-12-23T08:54:06.612Z,90.10
2017-12-23T08:59:09.182Z,90.10
2017-12-23T09:04:12.498Z,90.10
2017-12-23T09:09:15.810Z,90.20
2017-12-23T09:14:18.399Z,90.20
2017-12-23T09:19:20.973Z,90.10
2017-12-23T09:24:23.514Z,90.10
2017-12-23T09:29:26.067Z,90.20
2017-12-23T09:34:28.610Z,90.10
2017-12-23T09:39:31.146Z,90.20
2017-12-23T09:44:33.685Z,90.10
2017-12-23T09:49:36.206Z,90.00
2017-12-23T09:54:39.506Z,90.00
2017-12-23T09:59:42.051Z,90.00
2017-12-23T10:04:44.586Z,90.10
2017-12-23T10:09:47.135Z,90.20
2017-12-23T10:14:49.682Z,90.20
2017-12-23T10:19:52.209Z,90.10
2017-12-23T10:24:54.767Z,90.10
2017-12-23T10:29:57.278Z,90.00
2017-12-23T10:34:59.818Z,89.60
2017-12-23T10:40:02.363Z,89.40
2017-12-23T10:45:04.907Z,89.30
2017-12-23T10:50:07.456Z,88.90
2017-12-23T10:55:09.995Z,88.90
2017-12-23T11:00:12.559Z,88.60
2017-12-23T11:05:15.098Z,88.40
2017-12-23T11:10:18.486Z,88.20
2017-12-23T11:15:21.034Z,88.00
2017-12-23T11:20:23.603Z,87.90
2017-12-23T11:25:26.163Z,87.90
2017-12-23T11:30:28.719Z,87.90
2017-12-23T11:35:31.262Z,87.80
2017-12-23T11:40:33.835Z,88.00
2017-12-23T11:45:36.382Z,88.00
2017-12-23T11:50:38.939Z,88.00
2017-12-23T11:55:41.491Z,88.00
2017-12-23T12:00:44.050Z,88.00
2017-12-23T12:05:46.594Z,88.00
2017-12-23T12:10:49.147Z,88.00
2017-12-23T12:15:51.694Z,87.90
2017-12-23T12:20:55.015Z,87.70
2017-12-23T12:25:58.340Z,87.70
2017-12-23T12:31:01.672Z,87.70
2017-12-23T12:36:04.237Z,87.70
2017-12-23T12:41:06.766Z,87.60
2017-12-23T12:46:10.419Z,87.50
2017-12-23T12:51:13.835Z,87.50
2017-12-23T12:56:16.384Z,87.50
2017-12-23T13:01:19.711Z,87.50
2017-12-23T13:11:30.131Z,87.50
2017-12-23T13:16:32.677Z,87.50
2017-12-23T13:21:35.219Z,87.70
2017-12-23T13:26:38.544Z,87.70
2017-12-23T13:31:41.861Z,87.60
2017-12-23T13:36:45.163Z,87.50
2017-12-23T13:41:47.707Z,87.50
2017-12-23T13:46:50.267Z,87.50
2017-12-23T13:51:53.563Z,87.40
2017-12-23T13:56:56.099Z,87.40
2017-12-23T14:01:58.642Z,87.50
2017-12-23T14:07:01.166Z,87.40
2017-12-23T14:12:04.483Z,87.30
2017-12-23T14:17:07.781Z,87.30
2017-12-23T14:22:10.327Z,87.40
2017-12-23T14:27:12.869Z,87.30
2017-12-23T14:32:15.406Z,87.30
2017-12-23T14:37:18.694Z,87.10
2017-12-23T14:42:21.242Z,87.10
2017-12-23T14:47:23.783Z,87.10
2017-12-23T14:52:26.322Z,87.10
2017-12-23T14:57:28.863Z,87.10
2017-12-23T15:02:31.402Z,87.10
2017-12-23T15:07:34.722Z,87.10
2017-12-23T15:12:37.266Z,87.10
2017-12-23T15:17:39.814Z,87.20
2017-12-23T15:22:43.127Z,87.20
2017-12-23T15:27:45.678Z,87.20
2017-12-23T15:32:48.217Z,87.10
2017-12-23T15:37:50.771Z,86.90
2017-12-23T15:42:53.294Z,86.70
2017-12-23T15:47:55.835Z,86.60
2017-12-23T15:52:59.147Z,86.60
2017-12-23T15:58:01.686Z,86.60
2017-12-23T16:03:04.217Z,86.70
2017-12-23T16:08:06.746Z,86.70
2017-12-23T16:13:09.285Z,86.70
2017-12-23T16:18:11.834Z,86.80
2017-12-23T16:23:15.182Z,86.70
2017-12-23T16:28:17.727Z,86.60
2017-12-23T16:33:20.271Z,86.70
2017-12-23T16:38:22.831Z,86.70
2017-12-23T16:43:25.363Z,86.60
2017-12-23T16:48:27.934Z,86.50
2017-12-23T16:53:31.251Z,86.40
2017-12-23T16:58:35.272Z,86.40
2017-12-23T17:03:37.850Z,86.40
2017-12-23T17:08:40.398Z,86.40
2017-12-23T17:13:43.844Z,86.30
2017-12-23T17:18:46.406Z,86.20
2017-12-23T17:23:49.715Z,85.80
2017-12-23T17:29:05.072Z,86.00
2017-12-23T17:34:07.612Z,85.40
2017-12-23T17:39:10.947Z,85.10
2017-12-23T17:44:13.486Z,85.10
2017-12-23T17:49:16.043Z,85.10
2017-12-23T17:54:18.582Z,85.10
2017-12-23T17:59:21.144Z,84.60
2017-12-23T18:04:23.688Z,84.50
2017-12-23T18:09:26.238Z,84.60
2017-12-23T18:14:28.846Z,84.20
2017-12-23T18:19:31.420Z,84.00
2017-12-23T18:24:34.742Z,83.90
2017-12-23T18:29:38.078Z,83.80
2017-12-23T18:34:40.619Z,83.80
2017-12-23T18:39:43.192Z,83.80
2017-12-23T18:44:45.771Z,84.00
2017-12-23T18:49:49.091Z,83.80
2017-12-23T18:54:51.643Z,83.80
2017-12-23T18:59:54.190Z,84.00
2017-12-23T19:04:56.751Z,84.10
2017-12-23T19:09:59.295Z,84.00
2017-12-23T19:15:01.853Z,84.00
2017-12-23T19:20:04.417Z,84.00
2017-12-23T19:25:06.967Z,84.00
2017-12-23T19:30:09.513Z,84.00
2017-12-23T19:35:12.063Z,83.80
2017-12-23T19:40:14.602Z,84.00
2017-12-23T19:45:17.150Z,84.00
2017-12-23T19:50:20.475Z,83.90
2017-12-23T19:55:23.018Z,83.90
2017-12-23T20:00:25.578Z,83.90
2017-12-23T20:05:28.115Z,83.90
2017-12-23T20:10:30.667Z,84.00
2017-12-23T20:15:33.996Z,84.00
2017-12-23T20:20:36.560Z,84.00
2017-12-23T20:25:39.126Z,84.10
2017-12-23T20:30:41.695Z,84.10
2017-12-23T20:35:44.239Z,84.10
2017-12-23T20:40:46.819Z,84.20
2017-12-23T20:45:49.371Z,84.20
2017-12-23T20:50:52.708Z,84.10
2017-12-23T20:55:55.255Z,84.10
2017-12-23T21:00:57.793Z,84.00
2017-12-23T21:06:01.111Z,84.00
2017-12-23T21:11:04.430Z,83.80
2017-12-23T21:16:06.981Z,83.80
2017-12-23T21:21:09.527Z,83.70
2017-12-23T21:26:12.069Z,83.40
2017-12-23T21:31:14.671Z,83.90
2017-12-23T21:36:17.226Z,83.80
2017-12-23T21:41:19.759Z,83.60
2017-12-23T21:46:22.292Z,83.50
2017-12-23T22:03:37.866Z,83.60
2017-12-23T22:08:40.425Z,83.70
2017-12-23T22:13:43.775Z,83.50
2017-12-23T22:18:47.111Z,83.40
2017-12-23T22:23:49.703Z,83.30
2017-12-23T22:28:52.245Z,83.20
2017-12-23T22:33:55.562Z,83.00
2017-12-23T22:38:58.128Z,82.90
2017-12-23T22:44:00.726Z,83.00
2017-12-23T22:49:03.308Z,83.00
2017-12-23T22:54:05.888Z,83.00
2017-12-23T22:59:08.445Z,83.10
2017-12-23T23:04:11.012Z,82.90
2017-12-23T23:09:13.592Z,82.80
2017-12-23T23:14:16.150Z,83.10
2017-12-23T23:19:18.721Z,82.90
2017-12-23T23:24:21.303Z,83.10
2017-12-23T23:29:23.874Z,83.00
2017-12-23T23:34:27.235Z,83.30
2017-12-23T23:39:30.625Z,83.20
2017-12-23T23:44:33.190Z,83.20
2017-12-23T23:49:35.759Z,83.50
2017-12-23T23:54:38.325Z,83.30
2017-12-23T23:59:40.992Z,83.10
